Main page
METAR-TAF:

METAR-TAF

Airports :

Jaipur International Airport

Jaipur, India

latitude: 26-49N, longitude: 075-48E, elevation: 385 m

Current weather observation

The report was made 21 minutes ago, at 05:00 UTC
Wind 5 kt from the Southeast
Temperature 30°C
Humidity 31%
Pressure 1011 hPa
Visibility: 5000 m
Few clouds at a height of 10000 ft
haze

METAR: VIJP 200500Z 14005KT 5000 HZ FEW100 30/11 Q1011 NOSIG

Time: 10:51 (05:21 UTC)

Forecast

The report was made 3 hours and 21 minutes ago, at 02:00 UTC
Forecast valid from 20 at 03 UTC to 20 at 12 UTC
Wind 2 kt from variable directions
Visibility: 2500 m
Few clouds at a height of 10000 ft
haze
Becoming
from 20 at 04 UTC to 20 at 06 UTC
Wind 4 kt from the East/Northeast
Visibility: 4000 m
Few clouds at a height of 3500 ft
haze

TAF: VIJP 200200Z 2003/2012 VRB02KT 2500 HZ FEW100 BECMG 2004/2006 07004KT 4000 HZ FEW035

Weather observations and forecasts of more than 4000 airports (METAR and TAF reports).

The available stations are represented by yellow and red dots on the map.

Hover mouse over dot to see the name of the station.

Then click to see weather observations and forecasts.

To change the map : click on the green buttons with a black cross to zoom in, on the green button with a dash to zoom out, or on the green arrows for adjacent maps.


METAR-TAF: